Startpagina
METAR-TAF:

METAR-TAF

Vliegvelden :

Istanbul Atatürk, Turkije

Luchthaven Istanbul Atatürk

breedte: 40-58N, lengte: 028-49E, hoogte: 48 m

Actueel weer

Dit bericht is 45 minuten geleden gemaakt, om 15:50 UTC
Wind 11 kt uit het noordoosten, variërend tussen het noorden en het zuidoosten
Temperatuur 16°C
Vochtigheid 29%
Druk 1022 hPa
Zicht 10 km of meer
geen wolken onder 1500 m en geen cumulonimbus

METAR: LTBA 251550Z 05011KT 010V130 CAVOK 16/M02 Q1022 NOSIG RMK RWY17L 04009KT 010V080 RWY05 02011KT RWY23 05008KT

Tijdstip: 19:35 (16:35 UTC)

Verwachting

Dit bericht is 5 uur en het 55 minuten geleden gemaakt, om 10:40 UTC
Verwachting geldig van 25 om 12 UTC tot 26 om 18 UTC
Wind 9 kt uit het noordnoordoosten
Zicht 10 km of meer
geen wolken onder 1500 m en geen cumulonimbus
Tijdelijke
van 25 om 12 UTC tot 25 om 15 UTC
Wind 10 kt uit het zuiden
Tijdelijke
van 26 om 06 UTC tot 26 om 10 UTC
Wind 12 kt uit het zuidwesten

TAF: LTBA 251040Z 2512/2618 02009KT CAVOK TEMPO 2512/2515 18010KT TEMPO 2606/2610 22012KT

Waarnemingen en weersverwachtingen van meer dan 4000 vliegvelden (METAR en TAF).

De beschikbare stations zijn de gele en rode punten op de kaart.

Ga met uw muis naar het station om de naam te zien.

Klik dan om waarnemingen en weersverwachtingen te zien.

kaart wijzigen: klik op de groene knoppen met een zwart kruis om in te zoomen, op de groene knop met een streepje om uit te zoomen of op de groene pijlen voor aangrenzende kaarten.


METAR-TAF: